createdAt,value
2022-11-18T00:01:22.820Z,23.13
2022-11-18T00:03:50.402Z,18.88
2022-11-18T00:06:19.427Z,20.63
2022-11-18T00:08:49.478Z,17.90
2022-11-18T00:11:39.978Z,17.17
2022-11-18T00:14:22.161Z,34.28
2022-11-18T00:19:23.706Z,19.38
2022-11-18T00:21:50.837Z,38.05
2022-11-18T00:24:17.646Z,21.83
2022-11-18T00:26:44.166Z,37.90
2022-11-18T00:29:10.941Z,36.10
2022-11-18T00:31:38.019Z,24.85
2022-11-18T00:34:05.165Z,22.40
2022-11-18T00:36:32.512Z,29.58
2022-11-18T00:39:01.794Z,21.52
2022-11-18T00:41:48.269Z,22.25
2022-11-18T00:44:14.723Z,21.80
2022-11-18T00:46:41.770Z,22.83
2022-11-18T00:49:08.719Z,23.48
2022-11-18T00:51:38.042Z,21.33
2022-11-18T00:54:05.057Z,23.73
2022-11-18T00:56:31.846Z,24.17
2022-11-18T00:58:58.774Z,31.55
2022-11-18T01:01:25.958Z,24.02
2022-11-18T01:03:52.522Z,23.20
2022-11-18T01:06:19.071Z,22.52
2022-11-18T01:08:48.335Z,23.25
2022-11-18T01:11:33.440Z,21.10
2022-11-18T01:13:59.909Z,20.77
2022-11-18T01:16:28.225Z,21.42
2022-11-18T01:18:55.223Z,23.65
2022-11-18T01:21:22.880Z,22.05
2022-11-18T01:23:49.556Z,22.25
2022-11-18T01:26:17.230Z,21.77
2022-11-18T01:28:44.562Z,21.77
2022-11-18T01:31:19.371Z,20.85
2022-11-18T01:33:47.104Z,20.58
2022-11-18T01:36:17.940Z,18.48
2022-11-18T01:38:44.478Z,21.42
2022-11-18T01:41:14.048Z,22.15
2022-11-18T01:44:31.636Z,23.17
2022-11-18T01:46:58.119Z,25.55
2022-11-18T01:49:24.765Z,25.52
2022-11-18T01:51:56.679Z,19.85
2022-11-18T01:54:37.353Z,25.95
2022-11-18T01:57:11.703Z,32.72
2022-11-18T01:59:43.867Z,31.83
2022-11-18T02:02:14.222Z,30.38
2022-11-18T02:04:44.392Z,21.25
2022-11-18T02:07:12.155Z,18.75
2022-11-18T02:09:38.856Z,19.15
2022-11-18T02:12:07.835Z,23.45
2022-11-18T02:14:40.969Z,22.35
2022-11-18T02:17:42.544Z,24.63
2022-11-18T02:20:09.009Z,19.40
2022-11-18T02:23:06.552Z,30.60
2022-11-18T02:26:07.057Z,38.80
2022-11-18T02:29:03.041Z,31.45
2022-11-18T02:31:40.945Z,26.83
2022-11-18T02:34:14.478Z,28.20
2022-11-18T02:36:48.192Z,35.72
2022-11-18T02:39:23.003Z,24.83
2022-11-18T02:41:54.197Z,37.28
2022-11-18T02:44:24.988Z,28.52
2022-11-18T02:47:01.788Z,37.20
2022-11-18T02:49:54.467Z,26.52
2022-11-18T02:52:28.598Z,31.67
2022-11-18T02:54:59.060Z,29.88
2022-11-18T02:57:29.108Z,33.20
2022-11-18T02:59:55.806Z,33.38
2022-11-18T03:02:22.864Z,23.92
2022-11-18T03:04:53.652Z,28.17
2022-11-18T03:07:25.140Z,38.17
2022-11-18T03:09:53.002Z,34.13
2022-11-18T03:12:42.285Z,32.83
2022-11-18T03:15:16.353Z,27.38
2022-11-18T03:17:51.424Z,27.45
2022-11-18T03:20:33.219Z,28.10
2022-11-18T03:23:14.694Z,27.33
2022-11-18T03:25:47.685Z,38.72
2022-11-18T03:28:27.189Z,32.10
2022-11-18T03:31:08.433Z,21.58
2022-11-18T03:33:39.880Z,25.20
2022-11-18T03:36:09.613Z,24.73
2022-11-18T03:38:40.123Z,23.58
2022-11-18T03:41:11.287Z,27.85
2022-11-18T03:43:41.935Z,28.98
2022-11-18T03:46:20.888Z,30.77
2022-11-18T03:48:53.572Z,22.02
2022-11-18T03:51:46.170Z,25.08
2022-11-18T03:54:30.081Z,28.45
2022-11-18T03:57:04.070Z,26.23
2022-11-18T03:59:36.549Z,28.05
2022-11-18T04:02:14.924Z,21.35
2022-11-18T04:04:44.150Z,27.02
2022-11-18T04:07:35.708Z,27.27
2022-11-18T04:10:30.909Z,29.98
2022-11-18T04:13:00.622Z,23.33
2022-11-18T04:15:31.805Z,23.05
2022-11-18T04:17:59.199Z,27.13
2022-11-18T04:20:27.024Z,35.40
2022-11-18T04:22:53.522Z,48.63
2022-11-18T04:25:20.047Z,42.30
2022-11-18T04:27:46.498Z,38.28
2022-11-18T04:30:13.315Z,34.00
2022-11-18T04:32:39.791Z,29.50
2022-11-18T04:35:06.552Z,34.42
2022-11-18T04:37:33.507Z,40.55
2022-11-18T04:40:00.102Z,34.25
2022-11-18T04:42:26.649Z,35.47
2022-11-18T04:44:53.168Z,36.15
2022-11-18T04:47:19.746Z,39.35
2022-11-18T04:49:46.235Z,40.70
2022-11-18T04:52:12.816Z,33.00
2022-11-18T04:54:39.285Z,39.50
2022-11-18T04:57:06.043Z,31.65
2022-11-18T04:59:32.547Z,37.85
2022-11-18T05:02:00.973Z,31.05
2022-11-18T05:04:30.159Z,35.20
2022-11-18T05:06:57.320Z,29.15
2022-11-18T05:09:30.255Z,30.17
2022-11-18T05:12:16.739Z,27.88
2022-11-18T05:14:49.319Z,32.15
2022-11-18T05:17:17.104Z,44.60
2022-11-18T05:19:43.570Z,32.67
2022-11-18T05:22:10.100Z,35.70
2022-11-18T05:24:36.627Z,36.78
2022-11-18T05:27:03.236Z,35.83
2022-11-18T05:29:29.726Z,41.58
2022-11-18T05:31:56.239Z,33.53
2022-11-18T05:34:22.883Z,39.30
2022-11-18T05:36:49.409Z,28.15
2022-11-18T05:39:16.269Z,37.42
2022-11-18T05:42:01.733Z,45.28
2022-11-18T05:44:30.957Z,35.10
2022-11-18T05:47:00.291Z,25.92
2022-11-18T05:49:26.857Z,37.95
2022-11-18T05:51:53.343Z,26.92
2022-11-18T05:54:24.150Z,27.02
2022-11-18T05:56:51.205Z,37.38
2022-11-18T05:59:18.189Z,25.08
2022-11-18T06:01:54.620Z,24.48
2022-11-18T06:04:47.668Z,24.85
2022-11-18T06:07:21.916Z,23.70
2022-11-18T06:09:54.079Z,26.33
2022-11-18T06:12:25.175Z,20.85
2022-11-18T06:15:00.171Z,23.50
2022-11-18T06:17:37.426Z,23.70
2022-11-18T06:20:05.045Z,21.50
2022-11-18T06:22:31.707Z,20.48
2022-11-18T06:24:58.237Z,19.98
2022-11-18T06:27:24.691Z,20.02
2022-11-18T06:29:51.195Z,19.95
2022-11-18T06:32:20.914Z,21.45
2022-11-18T06:34:47.373Z,20.77
2022-11-18T06:37:15.279Z,21.52
2022-11-18T06:39:41.965Z,21.10
2022-11-18T06:42:08.585Z,20.27
2022-11-18T06:44:35.141Z,20.60
2022-11-18T06:47:04.126Z,22.23
2022-11-18T06:49:30.575Z,21.25
2022-11-18T06:51:57.085Z,22.00
2022-11-18T06:54:23.640Z,23.00
2022-11-18T06:56:50.204Z,20.50
2022-11-18T06:59:22.188Z,20.35
2022-11-18T07:04:15.055Z,20.58
2022-11-18T07:06:41.561Z,23.10
2022-11-18T07:09:08.107Z,21.60
2022-11-18T07:11:34.689Z,22.70
2022-11-18T07:14:01.491Z,22.08
2022-11-18T07:16:28.570Z,20.63
2022-11-18T07:18:56.365Z,21.23
2022-11-18T07:21:27.765Z,21.73
2022-11-18T07:23:55.629Z,23.13
2022-11-18T07:26:22.365Z,23.33
2022-11-18T07:28:49.773Z,27.20
2022-11-18T07:31:18.594Z,36.25
2022-11-18T07:33:46.190Z,30.13
2022-11-18T07:36:14.997Z,33.03
2022-11-18T07:38:42.192Z,28.60
2022-11-18T07:41:08.689Z,35.60
2022-11-18T07:43:35.900Z,26.35
2022-11-18T07:46:12.669Z,31.73
2022-11-18T07:48:39.802Z,38.10
2022-11-18T07:51:10.183Z,22.33
2022-11-18T07:53:40.038Z,23.90
2022-11-18T07:56:07.079Z,26.02
2022-11-18T07:58:33.674Z,28.52
2022-11-18T08:01:12.444Z,38.92
2022-11-18T08:03:39.908Z,29.13
2022-11-18T08:06:08.271Z,40.28
2022-11-18T08:08:36.031Z,44.55
2022-11-18T08:11:06.559Z,33.83
2022-11-18T08:13:35.971Z,31.42
2022-11-18T08:16:03.503Z,32.25
2022-11-18T08:18:31.883Z,24.50
2022-11-18T08:21:05.221Z,29.30
2022-11-18T08:23:36.137Z,31.70
2022-11-18T08:26:11.387Z,27.13
2022-11-18T08:28:38.131Z,33.88
2022-11-18T08:31:14.879Z,35.70
2022-11-18T08:33:41.785Z,30.75
2022-11-18T08:36:11.040Z,27.90
2022-11-18T08:38:37.537Z,23.48
2022-11-18T08:41:06.039Z,25.50
2022-11-18T08:43:33.182Z,28.17
2022-11-18T08:45:59.668Z,30.70
2022-11-18T08:48:26.148Z,24.25
2022-11-18T08:50:53.099Z,31.02
2022-11-18T08:53:19.591Z,31.77
2022-11-18T08:55:46.056Z,27.65
2022-11-18T08:58:12.548Z,28.83
2022-11-18T09:00:38.980Z,32.15
2022-11-18T09:03:05.475Z,30.20
2022-11-18T09:05:31.914Z,25.80
2022-11-18T09:07:58.403Z,30.48
2022-11-18T09:10:24.859Z,23.88
2022-11-18T09:12:51.336Z,26.67
2022-11-18T09:15:17.984Z,29.17
2022-11-18T09:17:44.894Z,28.42
2022-11-18T09:20:11.437Z,28.95
2022-11-18T09:22:39.181Z,27.17
2022-11-18T09:25:06.223Z,28.38
2022-11-18T09:27:32.675Z,28.58
2022-11-18T09:29:59.202Z,23.30
2022-11-18T09:32:25.704Z,23.17
2022-11-18T09:34:52.268Z,27.65
2022-11-18T09:37:19.028Z,24.63
2022-11-18T09:39:45.588Z,25.70
2022-11-18T09:42:54.115Z,23.38
2022-11-18T09:45:28.460Z,22.17
2022-11-18T09:48:00.723Z,23.10
2022-11-18T09:50:48.630Z,23.95
2022-11-18T09:53:20.173Z,22.02
2022-11-18T09:55:48.883Z,21.35
2022-11-18T09:58:23.721Z,19.85
2022-11-18T10:00:50.377Z,19.58
2022-11-18T10:03:30.189Z,17.75
2022-11-18T10:06:03.825Z,19.25
2022-11-18T10:08:55.963Z,18.50
2022-11-18T10:11:38.644Z,18.60
2022-11-18T10:14:33.873Z,15.85
2022-11-18T10:17:31.522Z,19.70
2022-11-18T10:20:07.006Z,19.88
2022-11-18T10:22:56.257Z,20.50
2022-11-18T10:25:22.751Z,21.15
2022-11-18T10:27:50.766Z,18.23
2022-11-18T10:30:20.948Z,17.83
2022-11-18T10:33:19.774Z,18.33
2022-11-18T10:35:46.391Z,15.95
2022-11-18T10:38:12.820Z,14.48
2022-11-18T10:41:01.613Z,14.68
2022-11-18T10:43:46.529Z,15.95
2022-11-18T10:46:28.179Z,15.73
2022-11-18T10:49:21.248Z,12.52
2022-11-18T10:52:06.203Z,15.90
2022-11-18T10:54:33.409Z,14.57
2022-11-18T10:57:11.004Z,17.45
2022-11-18T10:59:55.312Z,22.45
2022-11-18T11:02:54.054Z,22.73
2022-11-18T11:05:23.365Z,22.23
2022-11-18T11:08:35.727Z,20.05
2022-11-18T11:11:04.329Z,20.17
2022-11-18T11:13:32.507Z,24.05
2022-11-18T11:16:03.497Z,21.23
2022-11-18T11:18:42.664Z,21.07
2022-11-18T11:21:22.822Z,18.90
2022-11-18T11:23:49.290Z,18.25
2022-11-18T11:29:49.060Z,18.67
2022-11-18T11:32:19.258Z,28.40
2022-11-18T11:35:13.298Z,21.58
2022-11-18T11:37:56.069Z,19.70
2022-11-18T11:40:41.257Z,17.58
2022-11-18T11:43:43.500Z,16.52
2022-11-18T11:46:45.166Z,16.40
2022-11-18T11:49:19.449Z,16.85
2022-11-18T11:51:53.915Z,15.77
2022-11-18T11:54:26.321Z,16.02
2022-11-18T11:57:04.059Z,15.20
2022-11-18T11:59:36.333Z,14.15
2022-11-18T12:02:33.391Z,15.75
2022-11-18T12:05:39.341Z,13.35
2022-11-18T12:08:25.334Z,13.23
2022-11-18T12:10:56.224Z,13.93
2022-11-18T12:13:56.723Z,16.88
2022-11-18T12:17:00.764Z,13.35
2022-11-18T12:19:27.449Z,14.82
2022-11-18T12:21:58.197Z,15.15
2022-11-18T12:24:31.302Z,15.18
2022-11-18T12:27:13.768Z,16.15
2022-11-18T12:29:49.078Z,16.95
2022-11-18T12:32:35.315Z,16.33
2022-11-18T12:35:21.633Z,17.95
2022-11-18T12:37:51.168Z,16.98
2022-11-18T12:40:36.993Z,13.65
2022-11-18T12:43:25.015Z,16.35
2022-11-18T12:45:56.159Z,15.57
2022-11-18T12:48:31.630Z,17.65
2022-11-18T12:51:10.961Z,14.52
2022-11-18T12:53:40.335Z,14.02
2022-11-18T12:56:25.118Z,14.20
2022-11-18T12:58:56.786Z,13.77
2022-11-18T13:01:26.270Z,13.90
2022-11-18T13:04:05.359Z,13.40
2022-11-18T13:06:34.702Z,12.88
2022-11-18T13:09:04.203Z,12.20
2022-11-18T13:11:47.660Z,12.80
2022-11-18T13:14:37.048Z,14.52
2022-11-18T13:17:41.617Z,11.60
2022-11-18T13:20:30.938Z,13.80
2022-11-18T13:23:17.064Z,14.40
2022-11-18T13:25:47.732Z,14.35
2022-11-18T13:28:19.234Z,13.93
2022-11-18T13:30:54.637Z,16.63
2022-11-18T13:33:21.297Z,17.10
2022-11-18T13:35:47.765Z,16.95
2022-11-18T13:38:28.020Z,18.67
2022-11-18T13:41:15.591Z,17.40
2022-11-18T13:43:42.108Z,18.17
2022-11-18T13:46:17.384Z,18.13
2022-11-18T13:48:54.536Z,17.70
2022-11-18T13:51:22.636Z,18.45
2022-11-18T13:53:49.124Z,19.70
2022-11-18T13:56:17.900Z,18.45
2022-11-18T13:59:16.240Z,20.40
2022-11-18T14:01:44.726Z,20.50
2022-11-18T14:04:27.560Z,22.25
2022-11-18T14:06:54.072Z,22.25
2022-11-18T14:09:27.399Z,21.10
2022-11-18T14:12:00.502Z,19.90
2022-11-18T14:14:36.338Z,16.35
2022-11-18T14:17:16.003Z,20.05
2022-11-18T14:19:42.974Z,22.65
2022-11-18T14:22:24.706Z,23.85
2022-11-18T14:25:22.229Z,26.90
2022-11-18T14:27:53.822Z,29.95
2022-11-18T14:30:37.029Z,28.77
2022-11-18T14:33:03.487Z,28.52
2022-11-18T14:35:33.556Z,30.27
2022-11-18T14:38:35.266Z,31.25
2022-11-18T14:40:54.964Z,31.52
2022-11-18T14:43:21.589Z,31.90
2022-11-18T14:45:49.828Z,23.33
2022-11-18T14:48:20.066Z,28.67
2022-11-18T14:50:47.953Z,25.73
2022-11-18T14:53:14.463Z,27.17
2022-11-18T14:55:41.718Z,27.58
2022-11-18T14:58:14.143Z,26.33
2022-11-18T15:00:45.710Z,29.08
2022-11-18T15:03:12.283Z,20.20
2022-11-18T15:05:39.231Z,26.45
2022-11-18T15:08:05.780Z,28.63
2022-11-18T15:10:32.619Z,30.30
2022-11-18T15:12:59.109Z,32.03
2022-11-18T15:15:25.737Z,29.80
2022-11-18T15:17:54.046Z,31.65
2022-11-18T15:20:22.971Z,29.92
2022-11-18T15:22:49.675Z,33.95
2022-11-18T15:25:16.585Z,34.60
2022-11-18T15:27:44.248Z,28.98
2022-11-18T15:30:13.851Z,33.88
2022-11-18T15:32:40.598Z,30.70
2022-11-18T15:35:07.484Z,30.00
2022-11-18T15:37:33.982Z,32.92
2022-11-18T15:40:00.452Z,33.55
2022-11-18T15:42:26.958Z,30.50
2022-11-18T15:44:53.414Z,34.25
2022-11-18T15:47:19.964Z,34.95
2022-11-18T15:49:46.474Z,33.90
2022-11-18T15:52:13.036Z,36.35
2022-11-18T15:54:39.580Z,32.92
2022-11-18T15:57:06.114Z,35.08
2022-11-18T15:59:32.607Z,36.28
2022-11-18T16:01:59.132Z,35.85
2022-11-18T16:04:28.214Z,37.85
2022-11-18T16:06:54.925Z,36.70
2022-11-18T16:09:21.790Z,38.25
2022-11-18T16:12:06.890Z,38.95
2022-11-18T16:14:36.775Z,38.83
2022-11-18T16:17:03.314Z,38.80
2022-11-18T16:19:33.370Z,36.22
2022-11-18T16:22:00.083Z,33.20
2022-11-18T16:24:29.018Z,34.15
2022-11-18T16:26:56.263Z,37.25
2022-11-18T16:29:24.331Z,31.50
2022-11-18T16:31:52.501Z,28.05
2022-11-18T16:34:19.188Z,37.17
2022-11-18T16:36:52.074Z,34.90
2022-11-18T16:39:26.709Z,38.42
2022-11-18T16:42:06.447Z,33.33
2022-11-18T16:44:34.871Z,36.83
2022-11-18T16:47:01.564Z,32.58
2022-11-18T16:49:28.271Z,36.78
2022-11-18T16:51:58.645Z,34.00
2022-11-18T16:54:27.061Z,37.25
2022-11-18T16:56:56.104Z,38.53
2022-11-18T16:59:30.716Z,34.53
2022-11-18T17:01:59.573Z,36.75
2022-11-18T17:04:28.441Z,37.28
2022-11-18T17:06:55.649Z,36.38
2022-11-18T17:09:23.995Z,35.70
2022-11-18T17:11:52.154Z,32.47
2022-11-18T17:14:19.606Z,35.58
2022-11-18T17:16:46.447Z,35.88
2022-11-18T17:19:19.041Z,35.67
2022-11-18T17:21:46.935Z,34.55
2022-11-18T17:24:15.966Z,35.58
2022-11-18T17:26:43.143Z,34.10
2022-11-18T17:29:11.632Z,36.00
2022-11-18T17:31:38.804Z,30.45
2022-11-18T17:34:05.885Z,33.85
2022-11-18T17:36:32.680Z,31.25
2022-11-18T17:39:00.541Z,36.50
2022-11-18T17:41:47.150Z,36.85
2022-11-18T17:44:15.767Z,33.08
2022-11-18T17:46:42.946Z,35.47
2022-11-18T17:49:23.575Z,32.88
2022-11-18T17:51:53.487Z,33.70
2022-11-18T17:54:21.288Z,34.53
2022-11-18T17:56:49.853Z,35.55
2022-11-18T17:59:17.433Z,35.90
2022-11-18T18:01:45.442Z,35.17
2022-11-18T18:04:14.474Z,35.35
2022-11-18T18:06:41.389Z,34.33
2022-11-18T18:09:07.839Z,36.38
2022-11-18T18:11:34.404Z,33.42
2022-11-18T18:14:13.002Z,35.13
2022-11-18T18:16:45.472Z,33.58
2022-11-18T18:19:23.374Z,25.88
2022-11-18T18:21:50.647Z,35.05
2022-11-18T18:24:19.579Z,35.50
2022-11-18T18:26:46.594Z,36.25
2022-11-18T18:29:13.472Z,38.28
2022-11-18T18:31:40.075Z,36.63
2022-11-18T18:34:06.728Z,38.25
2022-11-18T18:36:33.711Z,36.90
2022-11-18T18:39:01.704Z,36.72
2022-11-18T18:41:28.336Z,36.05
2022-11-18T18:43:54.987Z,39.08
2022-11-18T18:46:31.107Z,36.60
2022-11-18T18:49:15.278Z,36.83
2022-11-18T18:51:44.493Z,35.38
2022-11-18T18:54:15.848Z,36.15
2022-11-18T18:56:43.188Z,35.97
2022-11-18T18:59:10.544Z,36.70
2022-11-18T19:01:39.364Z,39.30
2022-11-18T19:04:07.779Z,35.92
2022-11-18T19:09:23.277Z,35.67
2022-11-18T19:12:09.423Z,37.10
2022-11-18T19:14:36.071Z,35.72
2022-11-18T19:17:09.439Z,33.72
2022-11-18T19:19:55.701Z,27.85
2022-11-18T19:22:22.212Z,34.50
2022-11-18T19:24:50.569Z,35.17
2022-11-18T19:27:18.244Z,29.42
2022-11-18T19:29:45.128Z,35.22
2022-11-18T19:32:11.708Z,35.28
2022-11-18T19:34:38.218Z,35.17
2022-11-18T19:37:04.701Z,30.85
2022-11-18T19:39:31.324Z,31.52
2022-11-18T19:41:57.888Z,31.40
2022-11-18T19:44:24.356Z,33.70
2022-11-18T19:46:50.849Z,30.33
2022-11-18T19:49:19.563Z,33.03
2022-11-18T19:51:46.240Z,32.85
2022-11-18T19:54:12.841Z,31.88
2022-11-18T19:56:39.391Z,32.17
2022-11-18T19:59:05.843Z,32.10
2022-11-18T20:01:32.787Z,32.60
2022-11-18T20:04:02.949Z,30.67
2022-11-18T20:06:29.832Z,29.60
2022-11-18T20:08:57.152Z,28.95
2022-11-18T20:11:24.067Z,28.30
2022-11-18T20:13:51.096Z,26.23
2022-11-18T20:16:23.340Z,28.50
2022-11-18T20:18:54.904Z,26.80
2022-11-18T20:21:22.303Z,26.13
2022-11-18T20:23:58.841Z,27.60
2022-11-18T20:26:28.039Z,26.95
2022-11-18T20:28:57.639Z,27.00
2022-11-18T20:31:25.727Z,27.45
2022-11-18T20:33:54.309Z,26.77
2022-11-18T20:36:25.007Z,22.92
2022-11-18T20:38:54.180Z,26.77
2022-11-18T20:41:21.868Z,26.52
2022-11-18T20:43:48.861Z,25.15
2022-11-18T20:46:20.665Z,24.90
2022-11-18T20:48:47.836Z,23.80
2022-11-18T20:51:23.605Z,24.65
2022-11-18T20:53:51.195Z,23.30
2022-11-18T20:56:19.975Z,23.83
2022-11-18T20:58:47.114Z,23.08
2022-11-18T21:01:16.581Z,22.27
2022-11-18T21:03:52.669Z,21.58
2022-11-18T21:06:19.942Z,22.67
2022-11-18T21:08:46.650Z,22.75
2022-11-18T21:11:14.713Z,23.15
2022-11-18T21:14:00.371Z,23.77
2022-11-18T21:16:27.855Z,22.70
2022-11-18T21:18:54.774Z,22.75
2022-11-18T21:21:39.855Z,21.45
2022-11-18T21:24:06.643Z,24.70
2022-11-18T21:26:35.460Z,21.42
2022-11-18T21:29:04.944Z,22.65
2022-11-18T21:31:32.725Z,17.77
2022-11-18T21:33:59.408Z,21.63
2022-11-18T21:36:28.201Z,23.05
2022-11-18T21:38:56.856Z,23.70
2022-11-18T21:41:23.534Z,21.30
2022-11-18T21:44:05.128Z,21.77
2022-11-18T21:46:34.724Z,24.38
2022-11-18T21:49:01.935Z,21.00
2022-11-18T21:51:28.768Z,22.85
2022-11-18T21:53:55.203Z,22.15
2022-11-18T21:56:25.152Z,24.17
2022-11-18T21:58:52.701Z,23.30
2022-11-18T22:01:21.512Z,23.33
2022-11-18T22:03:55.202Z,23.08
2022-11-18T22:06:24.476Z,24.23
2022-11-18T22:08:52.342Z,23.30
2022-11-18T22:11:20.290Z,23.30
2022-11-18T22:13:47.052Z,22.48
2022-11-18T22:16:18.082Z,23.77
2022-11-18T22:18:50.345Z,24.52
2022-11-18T22:21:21.400Z,24.65
2022-11-18T22:23:48.490Z,23.70
2022-11-18T22:26:19.941Z,23.33
2022-11-18T22:28:47.698Z,23.40
2022-11-18T22:31:17.082Z,24.05
2022-11-18T22:33:43.580Z,24.27
2022-11-18T22:36:13.609Z,24.85
2022-11-18T22:38:41.383Z,23.65
2022-11-18T22:41:32.241Z,20.23
2022-11-18T22:44:03.961Z,22.65
2022-11-18T22:46:33.452Z,22.98
2022-11-18T22:49:00.033Z,22.42
2022-11-18T22:51:26.769Z,23.08
2022-11-18T22:54:09.797Z,19.67
2022-11-18T22:56:39.930Z,22.25
2022-11-18T22:59:20.269Z,22.85
2022-11-18T23:01:47.000Z,20.45
2022-11-18T23:04:13.503Z,22.48
2022-11-18T23:06:42.904Z,22.35
2022-11-18T23:09:10.042Z,22.70
2022-11-18T23:11:54.867Z,21.85
2022-11-18T23:14:21.353Z,21.80
2022-11-18T23:16:47.812Z,20.90
2022-11-18T23:19:17.291Z,22.45
2022-11-18T23:21:45.211Z,21.38
2022-11-18T23:24:16.098Z,22.10
2022-11-18T23:26:43.606Z,22.67
2022-11-18T23:29:11.905Z,22.58
2022-11-18T23:31:44.031Z,21.05
2022-11-18T23:34:15.061Z,22.60
2022-11-18T23:36:42.124Z,22.53
2022-11-18T23:39:09.237Z,22.20
2022-11-18T23:41:35.915Z,22.48
2022-11-18T23:44:02.685Z,20.30
2022-11-18T23:46:29.714Z,22.48
2022-11-18T23:48:56.508Z,21.27
2022-11-18T23:51:29.077Z,21.17
2022-11-18T23:53:59.256Z,19.92
2022-11-18T23:56:27.750Z,21.75
2022-11-18T23:59:01.728Z,23.23
